Time;durP1;ratioP1;P1;durP2;ratioP2;P2;SDS_P1;SDS_P2;PMS_P1;PMS_P2;Temp;Humidity;BMP_temperature;BMP_pressure;BME280_temperature;BME280_humidity;BME280_pressure;Samples;Min_cycle;Max_cycle;Signal;HPM_P1;HPM_P2
2021/07/05 00:01:16;;;;;;;6.53;6.03;;;;;;;;;;5036233;28;20416;-74
2021/07/05 00:03:42;;;;;;;6.13;5.63;;;;;;;;;;5035675;28;20418;-73
2021/07/05 00:06:08;;;;;;;6.20;5.60;;;;;;;;;;5036154;28;20474;-73
2021/07/05 00:08:34;;;;;;;5.97;5.43;;;;;;;;;;5035287;28;20465;-78
2021/07/05 00:11:00;;;;;;;7.40;6.80;;;;;;;;;;5036284;28;20433;-75
2021/07/05 00:13:26;;;;;;;7.20;6.70;;;;;;;;;;5035811;28;20488;-74
2021/07/05 00:15:52;;;;;;;5.90;5.40;;;;;;;;;;5035899;28;20413;-75
2021/07/05 00:18:18;;;;;;;6.47;5.90;;;;;;;;;;5035129;28;20921;-74
2021/07/05 00:20:45;;;;;;;6.27;5.67;;;;;;;;;;5035703;28;20441;-74
2021/07/05 00:23:11;;;;;;;6.00;5.50;;;;;;;;;;5035667;28;20433;-78
2021/07/05 00:25:37;;;;;;;6.57;6.07;;;;;;;;;;5035622;28;20409;-75
2021/07/05 00:28:04;;;;;;;6.87;6.37;;;;;;;;;;5035190;28;20453;-71
2021/07/05 00:30:30;;;;;;;6.43;5.93;;;;;;;;;;5035379;28;20471;-72
2021/07/05 00:32:56;;;;;;;6.83;6.13;;;;;;;;;;5035342;28;20417;-76
2021/07/05 00:35:24;;;;;;;6.63;6.13;;;;;;;;;;5035411;28;20419;-75
2021/07/05 00:37:50;;;;;;;6.97;6.47;;;;;;;;;;5034981;28;20412;-74
2021/07/05 00:40:17;;;;;;;6.83;6.33;;;;;;;;;;5035278;28;20960;-76
2021/07/05 00:42:43;;;;;;;7.47;6.87;;;;;;;;;;5033988;28;20828;-74
2021/07/05 00:45:10;;;;;;;7.17;6.47;;;;;;;;;;5035518;28;20765;-77
2021/07/05 00:47:36;;;;;;;7.53;6.70;;;;;;;;;;5034533;28;20457;-75
2021/07/05 00:50:04;;;;;;;7.30;6.70;;;;;;;;;;5035033;28;20462;-77
2021/07/05 00:52:30;;;;;;;8.20;6.60;;;;;;;;;;5034672;28;20409;-74
2021/07/05 00:54:56;;;;;;;6.50;6.00;;;;;;;;;;5035021;28;20408;-75
2021/07/05 00:57:27;;;;;;;5.97;5.47;;;;;;;;;;5036164;28;20439;-75
2021/07/05 00:59:55;;;;;;;6.53;5.93;;;;;;;;;;5034052;28;20452;-74
2021/07/05 01:02:22;;;;;;;5.80;5.30;;;;;;;;;;5034080;28;20408;-74
2021/07/05 01:04:48;;;;;;;6.23;5.73;;;;;;;;;;5034808;28;20463;-73
2021/07/05 01:07:14;;;;;;;6.20;5.67;;;;;;;;;;5034077;28;20412;-75
2021/07/05 01:09:41;;;;;;;7.27;6.67;;;;;;;;;;5034478;28;20813;-74
2021/07/05 01:12:08;;;;;;;6.87;6.37;;;;;;;;;;5034464;28;20923;-74
2021/07/05 01:14:34;;;;;;;6.53;6.03;;;;;;;;;;5034508;28;20416;-73
2021/07/05 01:17:00;;;;;;;6.93;6.37;;;;;;;;;;5034570;28;20773;-73
2021/07/05 01:19:26;;;;;;;6.80;6.30;;;;;;;;;;5034493;28;20843;-74
2021/07/05 01:21:52;;;;;;;7.63;7.03;;;;;;;;;;5034602;28;20836;-75
2021/07/05 01:24:19;;;;;;;8.00;7.30;;;;;;;;;;5034103;28;20901;-74
2021/07/05 01:26:45;;;;;;;7.60;7.00;;;;;;;;;;5034243;28;20437;-77
2021/07/05 01:29:11;;;;;;;7.27;6.77;;;;;;;;;;5034097;28;20463;-74
2021/07/05 01:31:37;;;;;;;8.80;8.00;;;;;;;;;;5034280;28;20491;-77
2021/07/05 01:34:04;;;;;;;8.47;7.87;;;;;;;;;;5034144;28;20490;-76
2021/07/05 01:36:30;;;;;;;7.83;7.13;;;;;;;;;;5034067;28;20754;-72
2021/07/05 01:38:57;;;;;;;9.40;8.63;;;;;;;;;;5033923;28;20543;-73
2021/07/05 01:41:23;;;;;;;8.30;7.60;;;;;;;;;;5034002;28;20421;-75
2021/07/05 01:43:49;;;;;;;8.07;7.30;;;;;;;;;;5033918;28;20773;-74
2021/07/05 01:46:16;;;;;;;8.53;7.83;;;;;;;;;;5034012;28;20417;-74
2021/07/05 01:48:42;;;;;;;7.97;7.37;;;;;;;;;;5033573;28;20863;-72
2021/07/05 01:51:08;;;;;;;7.83;7.13;;;;;;;;;;5033984;28;20419;-75
2021/07/05 01:53:34;;;;;;;8.83;7.30;;;;;;;;;;5033847;28;20846;-76
2021/07/05 01:56:00;;;;;;;8.80;8.03;;;;;;;;;;5035407;28;20417;-75
2021/07/05 01:58:26;;;;;;;8.13;7.43;;;;;;;;;;5032983;28;21147;-73
2021/07/05 02:00:53;;;;;;;8.87;8.13;;;;;;;;;;5033653;28;20507;-74
2021/07/05 02:03:19;;;;;;;8.30;7.60;;;;;;;;;;5033694;28;20512;-72
2021/07/05 02:05:49;;;;;;;8.60;7.77;;;;;;;;;;5033716;28;20427;-74
2021/07/05 02:08:15;;;;;;;8.47;7.70;;;;;;;;;;5032949;28;20459;-74
2021/07/05 02:10:42;;;;;;;8.60;7.90;;;;;;;;;;5033598;28;20860;-73
2021/07/05 02:13:10;;;;;;;7.30;6.77;;;;;;;;;;5033184;28;20908;-73
2021/07/05 02:15:36;;;;;;;7.20;6.50;;;;;;;;;;5033477;28;20475;-72
2021/07/05 02:18:02;;;;;;;6.30;5.80;;;;;;;;;;5031780;28;20434;-74
2021/07/05 02:20:29;;;;;;;7.10;6.40;;;;;;;;;;5033123;28;20440;-74
2021/07/05 02:22:55;;;;;;;7.33;6.63;;;;;;;;;;5032886;28;20423;-72
2021/07/05 02:25:26;;;;;;;7.53;6.93;;;;;;;;;;5033423;28;20416;-73
2021/07/05 02:27:52;;;;;;;7.33;6.63;;;;;;;;;;5032902;28;20456;-73
2021/07/05 02:30:20;;;;;;;7.57;6.97;;;;;;;;;;5033346;28;20429;-74
2021/07/05 02:32:47;;;;;;;7.37;6.70;;;;;;;;;;5033409;28;20417;-74
2021/07/05 02:35:14;;;;;;;7.93;7.23;;;;;;;;;;5033182;28;20470;-71
2021/07/05 02:37:40;;;;;;;8.97;8.17;;;;;;;;;;5032927;28;20813;-71
2021/07/05 02:40:07;;;;;;;9.60;8.70;;;;;;;;;;5033033;28;20445;-74
2021/07/05 02:42:33;;;;;;;10.53;9.53;;;;;;;;;;5033214;28;20420;-71
2021/07/05 02:45:00;;;;;;;10.20;9.27;;;;;;;;;;5033200;28;20727;-72
2021/07/05 02:47:26;;;;;;;9.47;8.60;;;;;;;;;;5032644;28;20423;-74
2021/07/05 02:49:52;;;;;;;9.80;8.57;;;;;;;;;;5032972;28;20456;-74
2021/07/05 02:52:18;;;;;;;10.10;9.13;;;;;;;;;;5033166;28;20906;-70
2021/07/05 02:54:44;;;;;;;9.17;8.40;;;;;;;;;;5032857;28;20500;-73
2021/07/05 02:57:28;;;;;;;10.60;9.57;;;;;;;;;;5033662;28;20404;-73
2021/07/05 02:59:56;;;;;;;11.00;9.90;;;;;;;;;;5032788;28;20452;-72
2021/07/05 03:02:22;;;;;;;10.90;9.80;;;;;;;;;;5033000;28;20466;-72
2021/07/05 03:04:48;;;;;;;12.90;10.80;;;;;;;;;;5032864;28;20408;-75
2021/07/05 03:07:16;;;;;;;13.20;10.73;;;;;;;;;;5032205;28;20427;-73
2021/07/05 03:09:42;;;;;;;12.03;10.93;;;;;;;;;;5032939;28;20436;-74
2021/07/05 03:12:11;;;;;;;11.97;10.83;;;;;;;;;;5032974;28;20550;-71
2021/07/05 03:14:37;;;;;;;12.43;10.57;;;;;;;;;;5032696;28;20511;-70
2021/07/05 03:17:03;;;;;;;12.63;11.43;;;;;;;;;;5032454;28;20833;-72
2021/07/05 03:19:31;;;;;;;12.50;11.17;;;;;;;;;;5032358;28;21001;-71
2021/07/05 03:21:57;;;;;;;12.47;11.17;;;;;;;;;;5032954;28;20506;-75
2021/07/05 03:24:23;;;;;;;16.30;14.57;;;;;;;;;;5034475;28;20430;-71
2021/07/05 03:26:49;;;;;;;13.13;11.80;;;;;;;;;;5036360;28;20436;-70
2021/07/05 03:29:15;;;;;;;12.40;11.17;;;;;;;;;;5035950;28;20467;-70
2021/07/05 03:31:41;;;;;;;14.53;13.13;;;;;;;;;;5036505;28;20412;-73
2021/07/05 03:34:07;;;;;;;14.37;12.87;;;;;;;;;;5036421;28;20416;-73
2021/07/05 03:36:33;;;;;;;13.50;12.10;;;;;;;;;;5036220;28;20439;-73
2021/07/05 03:38:59;;;;;;;16.37;13.63;;;;;;;;;;5036184;28;20474;-74
2021/07/05 03:41:25;;;;;;;12.93;11.63;;;;;;;;;;5035989;28;20420;-73
2021/07/05 03:43:51;;;;;;;16.67;14.00;;;;;;;;;;5036234;28;20474;-72
2021/07/05 03:46:17;;;;;;;16.67;14.20;;;;;;;;;;5036294;28;20440;-70
2021/07/05 03:48:43;;;;;;;19.10;14.50;;;;;;;;;;5035725;28;20553;-76
2021/07/05 03:51:09;;;;;;;15.67;13.03;;;;;;;;;;5036228;28;20440;-73
2021/07/05 03:53:35;;;;;;;19.17;15.70;;;;;;;;;;5035848;28;20734;-75
2021/07/05 03:56:03;;;;;;;19.83;17.73;;;;;;;;;;5035824;28;20423;-72
2021/07/05 03:58:29;;;;;;;17.00;14.87;;;;;;;;;;5035449;28;20448;-71
2021/07/05 04:00:55;;;;;;;21.27;18.50;;;;;;;;;;5035633;28;20514;-73
2021/07/05 04:03:21;;;;;;;23.37;18.27;;;;;;;;;;5035797;28;20420;-72
2021/07/05 04:05:48;;;;;;;20.83;18.03;;;;;;;;;;5035735;28;20423;-73
2021/07/05 04:08:14;;;;;;;24.30;18.50;;;;;;;;;;5035396;28;20478;-73
2021/07/05 04:10:40;;;;;;;23.10;19.13;;;;;;;;;;5036052;28;20446;-77
2021/07/05 04:13:07;;;;;;;24.77;17.93;;;;;;;;;;5035561;28;20424;-71
2021/07/05 04:15:34;;;;;;;23.40;18.77;;;;;;;;;;5035420;28;20416;-74
2021/07/05 04:18:00;;;;;;;22.30;19.43;;;;;;;;;;5035098;28;20431;-76
2021/07/05 04:20:26;;;;;;;23.73;18.27;;;;;;;;;;5034152;28;20455;-74
2021/07/05 04:22:53;;;;;;;22.53;18.40;;;;;;;;;;5035548;28;20423;-75
2021/07/05 04:25:19;;;;;;;24.53;20.73;;;;;;;;;;5035625;28;20917;-72
2021/07/05 04:27:46;;;;;;;21.63;19.07;;;;;;;;;;5034624;28;20466;-73
2021/07/05 04:30:12;;;;;;;24.07;19.53;;;;;;;;;;5035276;28;20991;-76
2021/07/05 04:32:38;;;;;;;24.73;19.50;;;;;;;;;;5035351;28;20413;-74
2021/07/05 04:35:06;;;;;;;23.07;19.47;;;;;;;;;;5034031;28;20415;-74
2021/07/05 04:37:32;;;;;;;23.57;19.00;;;;;;;;;;5033595;28;20968;-73
2021/07/05 04:39:58;;;;;;;22.57;19.73;;;;;;;;;;5034976;28;20444;-74
2021/07/05 04:42:24;;;;;;;20.60;18.50;;;;;;;;;;5035219;28;20426;-72
2021/07/05 04:44:51;;;;;;;22.27;17.97;;;;;;;;;;5035152;28;20416;-76
2021/07/05 04:47:18;;;;;;;22.57;17.97;;;;;;;;;;5034355;28;20463;-74
2021/07/05 04:49:44;;;;;;;25.00;19.13;;;;;;;;;;5035242;28;20445;-74
2021/07/05 04:52:10;;;;;;;24.70;19.77;;;;;;;;;;5034763;28;20467;-73
2021/07/05 04:54:36;;;;;;;24.20;20.73;;;;;;;;;;5034831;28;20420;-72
2021/07/05 04:57:03;;;;;;;21.30;18.40;;;;;;;;;;5035200;28;20420;-75
2021/07/05 04:59:29;;;;;;;21.73;19.17;;;;;;;;;;5034839;28;20543;-72
2021/07/05 05:01:55;;;;;;;22.43;19.70;;;;;;;;;;5034435;28;20503;-74
2021/07/05 05:04:21;;;;;;;22.60;20.20;;;;;;;;;;5034949;28;20417;-74
2021/07/05 05:06:47;;;;;;;21.10;18.63;;;;;;;;;;5033899;28;20416;-75
2021/07/05 05:09:13;;;;;;;19.87;17.73;;;;;;;;;;5034379;28;20466;-71
2021/07/05 05:11:39;;;;;;;22.87;18.37;;;;;;;;;;5034409;28;20416;-75
2021/07/05 05:14:05;;;;;;;20.77;17.40;;;;;;;;;;5034694;28;20773;-75
2021/07/05 05:16:31;;;;;;;18.67;16.57;;;;;;;;;;5034202;28;20432;-72
2021/07/05 05:18:57;;;;;;;19.70;16.73;;;;;;;;;;5034264;28;20754;-73
2021/07/05 05:21:23;;;;;;;20.70;17.60;;;;;;;;;;5034311;28;20781;-76
2021/07/05 05:23:49;;;;;;;18.50;16.60;;;;;;;;;;5034138;28;20422;-72
2021/07/05 05:26:15;;;;;;;22.30;17.13;;;;;;;;;;5034315;28;20447;-74
2021/07/05 05:28:41;;;;;;;21.43;17.40;;;;;;;;;;5033629;28;20462;-72
2021/07/05 05:31:07;;;;;;;17.17;15.40;;;;;;;;;;5033800;28;20410;-73
2021/07/05 05:33:33;;;;;;;17.77;15.60;;;;;;;;;;5034120;28;20495;-75
2021/07/05 05:35:59;;;;;;;16.90;15.10;;;;;;;;;;5033863;28;20956;-71
2021/07/05 05:38:25;;;;;;;17.17;15.47;;;;;;;;;;5033538;28;20421;-73
2021/07/05 05:40:51;;;;;;;17.73;15.83;;;;;;;;;;5034106;28;20778;-75
2021/07/05 05:43:17;;;;;;;17.40;14.10;;;;;;;;;;5034372;28;20408;-74
2021/07/05 05:45:43;;;;;;;16.67;15.00;;;;;;;;;;5033647;28;20420;-72
2021/07/05 05:48:09;;;;;;;16.20;14.43;;;;;;;;;;5032082;28;20542;-71
2021/07/05 05:50:36;;;;;;;19.93;15.60;;;;;;;;;;5033805;28;20431;-75
2021/07/05 05:53:02;;;;;;;19.40;15.70;;;;;;;;;;5033748;28;20421;-71
2021/07/05 05:55:28;;;;;;;19.10;16.60;;;;;;;;;;5034257;28;20420;-73
2021/07/05 05:57:54;;;;;;;18.70;15.50;;;;;;;;;;5026353;28;20426;-70
2021/07/05 06:00:23;;;;;;;16.37;14.60;;;;;;;;;;5031051;28;20856;-77
2021/07/05 06:02:49;;;;;;;17.53;15.73;;;;;;;;;;5033763;28;20423;-73
2021/07/05 06:05:15;;;;;;;18.53;16.30;;;;;;;;;;5027837;28;21248;-73
2021/07/05 06:07:47;;;;;;;17.73;15.40;;;;;;;;;;5029518;28;20459;-72
2021/07/05 06:10:13;;;;;;;16.50;14.27;;;;;;;;;;5026884;28;20459;-71
2021/07/05 06:12:41;;;;;;;17.50;14.57;;;;;;;;;;5014619;28;20424;-74
2021/07/05 06:15:08;;;;;;;17.13;15.37;;;;;;;;;;5032614;28;20711;-71
2021/07/05 06:17:34;;;;;;;16.53;14.67;;;;;;;;;;5036445;28;20412;-72
2021/07/05 06:20:00;;;;;;;17.87;15.70;;;;;;;;;;5029023;28;20443;-73
2021/07/05 06:22:30;;;;;;;18.90;15.70;;;;;;;;;;5028700;28;20423;-72
2021/07/05 06:24:57;;;;;;;17.97;15.80;;;;;;;;;;5029238;28;20444;-75
2021/07/05 06:27:23;;;;;;;23.17;18.20;;;;;;;;;;5028960;28;20421;-73
2021/07/05 06:29:49;;;;;;;19.53;15.80;;;;;;;;;;5028870;28;20476;-77
2021/07/05 06:32:15;;;;;;;17.00;15.17;;;;;;;;;;5024561;28;20430;-73
2021/07/05 06:34:41;;;;;;;18.53;16.40;;;;;;;;;;5028944;28;20412;-72
2021/07/05 06:37:08;;;;;;;18.50;16.40;;;;;;;;;;5028899;28;20413;-75
2021/07/05 06:39:34;;;;;;;18.53;16.53;;;;;;;;;;5027978;28;20436;-72
2021/07/05 06:42:00;;;;;;;17.70;15.40;;;;;;;;;;5029203;28;20427;-72
2021/07/05 06:44:26;;;;;;;21.20;18.90;;;;;;;;;;5029006;28;20417;-75
2021/07/05 06:46:52;;;;;;;17.43;15.53;;;;;;;;;;5028775;28;20477;-70
2021/07/05 06:49:18;;;;;;;18.00;15.90;;;;;;;;;;5029103;28;20471;-72
2021/07/05 06:51:49;;;;;;;17.00;14.93;;;;;;;;;;5029188;28;20448;-73
2021/07/05 06:54:15;;;;;;;16.23;14.53;;;;;;;;;;5028361;28;20445;-74
2021/07/05 06:56:41;;;;;;;16.00;13.60;;;;;;;;;;5030287;28;20959;-72
2021/07/05 06:59:08;;;;;;;15.13;13.53;;;;;;;;;;5030647;28;20810;-71
2021/07/05 07:01:34;;;;;;;18.07;13.67;;;;;;;;;;5033156;28;20473;-72
2021/07/05 07:04:00;;;;;;;18.80;14.30;;;;;;;;;;5033462;28;20441;-73
2021/07/05 07:06:26;;;;;;;16.17;13.10;;;;;;;;;;5032939;28;20416;-76
2021/07/05 07:08:53;;;;;;;15.07;13.47;;;;;;;;;;5032382;28;20514;-72
2021/07/05 07:11:19;;;;;;;19.30;13.20;;;;;;;;;;5032952;28;20423;-74
2021/07/05 07:13:45;;;;;;;15.20;13.60;;;;;;;;;;5033243;28;20445;-72
2021/07/05 07:16:14;;;;;;;17.23;13.77;;;;;;;;;;5032236;28;20431;-76
2021/07/05 07:19:00;;;;;;;14.03;12.00;;;;;;;;;;5032510;28;20781;-74
2021/07/05 07:21:26;;;;;;;14.30;12.80;;;;;;;;;;5032019;28;20420;-73
2021/07/05 07:23:53;;;;;;;15.40;13.07;;;;;;;;;;5032863;28;20421;-73
2021/07/05 07:26:20;;;;;;;15.37;13.30;;;;;;;;;;5032529;28;20455;-71
2021/07/05 07:28:51;;;;;;;14.43;12.93;;;;;;;;;;5032104;28;20463;-71
2021/07/05 07:31:17;;;;;;;14.93;12.77;;;;;;;;;;5032570;28;20935;-74
2021/07/05 07:33:43;;;;;;;13.60;12.30;;;;;;;;;;5032400;28;20793;-73
2021/07/05 07:36:10;;;;;;;13.40;12.00;;;;;;;;;;5032336;28;20412;-74
2021/07/05 07:38:40;;;;;;;13.70;12.30;;;;;;;;;;5032126;28;20471;-74
2021/07/05 07:41:06;;;;;;;13.70;12.30;;;;;;;;;;5031130;28;20463;-73
2021/07/05 07:43:32;;;;;;;13.60;12.30;;;;;;;;;;5032210;28;20448;-77
2021/07/05 07:45:59;;;;;;;14.77;13.20;;;;;;;;;;5032476;28;20916;-73
2021/07/05 07:48:25;;;;;;;20.40;14.87;;;;;;;;;;5031649;28;20467;-75
2021/07/05 07:50:51;;;;;;;16.43;14.83;;;;;;;;;;5032085;28;20834;-72
2021/07/05 07:53:17;;;;;;;14.23;12.77;;;;;;;;;;5032251;28;20440;-71
2021/07/05 07:55:43;;;;;;;15.07;13.30;;;;;;;;;;5032241;28;20424;-74
2021/07/05 07:58:09;;;;;;;15.30;13.80;;;;;;;;;;5031674;28;20428;-72
2021/07/05 08:00:35;;;;;;;13.77;12.37;;;;;;;;;;5031802;28;21012;-73
2021/07/05 08:03:01;;;;;;;14.40;13.00;;;;;;;;;;5031862;28;20444;-73
2021/07/05 08:05:28;;;;;;;14.90;13.50;;;;;;;;;;5032150;28;20523;-75
2021/07/05 08:07:54;;;;;;;14.37;12.90;;;;;;;;;;5031319;28;20523;-74
2021/07/05 08:10:20;;;;;;;14.40;12.90;;;;;;;;;;5031730;28;20436;-74
2021/07/05 08:12:47;;;;;;;13.43;12.23;;;;;;;;;;5031883;28;20413;-74
2021/07/05 08:15:13;;;;;;;13.30;12.00;;;;;;;;;;5031848;28;20423;-74
2021/07/05 08:17:43;;;;;;;14.10;12.90;;;;;;;;;;5031111;28;20508;-72
2021/07/05 08:20:10;;;;;;;13.57;12.20;;;;;;;;;;5031790;28;20455;-74
2021/07/05 08:22:36;;;;;;;13.60;12.40;;;;;;;;;;5031766;28;20419;-75
2021/07/05 08:25:03;;;;;;;12.77;11.67;;;;;;;;;;5031512;28;20415;-74
2021/07/05 08:27:29;;;;;;;13.50;12.30;;;;;;;;;;5031078;28;20427;-73
2021/07/05 08:29:56;;;;;;;13.30;12.00;;;;;;;;;;5031394;28;20437;-75
2021/07/05 08:32:22;;;;;;;13.33;12.03;;;;;;;;;;5031601;28;21470;-73
2021/07/05 08:34:48;;;;;;;12.03;11.03;;;;;;;;;;5031399;28;20456;-74
2021/07/05 08:37:14;;;;;;;12.33;11.23;;;;;;;;;;5031139;28;20408;-74
2021/07/05 08:39:40;;;;;;;13.53;12.33;;;;;;;;;;5019341;28;21163;-75
2021/07/05 08:42:07;;;;;;;13.57;12.37;;;;;;;;;;5030522;28;20431;-75
2021/07/05 08:44:33;;;;;;;14.00;12.37;;;;;;;;;;5031358;28;20421;-72
2021/07/05 08:47:00;;;;;;;13.87;12.47;;;;;;;;;;5030649;28;20440;-72
2021/07/05 08:49:26;;;;;;;15.23;12.80;;;;;;;;;;5028580;28;20491;-75
2021/07/05 08:51:55;;;;;;;14.33;12.80;;;;;;;;;;5030852;28;20870;-72
2021/07/05 08:54:22;;;;;;;13.30;12.10;;;;;;;;;;5030511;28;20417;-74
2021/07/05 08:56:48;;;;;;;13.90;12.60;;;;;;;;;;5021070;28;20994;-74
2021/07/05 08:59:16;;;;;;;14.73;13.43;;;;;;;;;;5024408;28;20537;-74
2021/07/05 09:01:42;;;;;;;13.90;12.60;;;;;;;;;;5031110;28;20412;-77
2021/07/05 09:04:08;;;;;;;14.00;12.60;;;;;;;;;;5030904;28;20458;-75
2021/07/05 09:06:35;;;;;;;13.50;12.20;;;;;;;;;;5030519;28;20474;-71
2021/07/05 09:09:03;;;;;;;14.97;13.53;;;;;;;;;;5030482;28;20479;-73
2021/07/05 09:11:40;;;;;;;12.90;11.80;;;;;;;;;;5030921;28;20422;-76
2021/07/05 09:14:12;;;;;;;13.00;11.80;;;;;;;;;;5030734;28;20447;-72
2021/07/05 09:16:39;;;;;;;12.40;11.40;;;;;;;;;;5030117;28;20412;-73
2021/07/05 09:19:13;;;;;;;12.50;11.40;;;;;;;;;;5030374;28;20440;-73
2021/07/05 09:21:39;;;;;;;12.97;11.77;;;;;;;;;;5029946;28;20420;-75
2021/07/05 09:24:07;;;;;;;13.07;11.70;;;;;;;;;;5030421;28;20476;-73
2021/07/05 09:26:41;;;;;;;12.67;11.50;;;;;;;;;;5030415;28;20416;-71
2021/07/05 09:29:19;;;;;;;12.50;11.40;;;;;;;;;;5030220;28;20468;-72
2021/07/05 09:32:04;;;;;;;11.33;10.27;;;;;;;;;;5030535;28;20424;-74
2021/07/05 09:34:32;;;;;;;11.30;10.37;;;;;;;;;;5030165;28;20470;-75
2021/07/05 09:37:19;;;;;;;11.47;10.57;;;;;;;;;;5029786;28;20408;-73
2021/07/05 09:40:06;;;;;;;10.13;9.33;;;;;;;;;;5030304;28;20470;-76
2021/07/05 09:42:36;;;;;;;10.60;9.73;;;;;;;;;;5030136;28;20520;-74
2021/07/05 09:45:05;;;;;;;12.27;11.17;;;;;;;;;;5029978;28;20534;-72
2021/07/05 09:47:32;;;;;;;11.10;10.10;;;;;;;;;;5029417;28;20913;-74
2021/07/05 09:50:06;;;;;;;10.10;9.23;;;;;;;;;;5029847;28;20444;-73
2021/07/05 09:52:32;;;;;;;10.07;9.20;;;;;;;;;;5029947;28;20415;-73
2021/07/05 09:55:12;;;;;;;9.50;8.70;;;;;;;;;;5030035;28;20498;-73
2021/07/05 09:57:51;;;;;;;11.07;10.17;;;;;;;;;;5029404;28;20419;-73
2021/07/05 10:00:19;;;;;;;11.13;10.13;;;;;;;;;;5029296;28;20452;-74
2021/07/05 10:02:54;;;;;;;10.57;9.67;;;;;;;;;;5029886;28;20416;-73
2021/07/05 10:05:21;;;;;;;11.77;10.70;;;;;;;;;;5028350;28;20481;-76
2021/07/05 10:07:57;;;;;;;11.50;10.40;;;;;;;;;;5029294;28;20428;-74
2021/07/05 10:10:23;;;;;;;11.00;10.10;;;;;;;;;;5029625;28;20429;-74
2021/07/05 10:12:51;;;;;;;11.63;10.67;;;;;;;;;;5028431;28;20424;-74
2021/07/05 10:15:17;;;;;;;9.83;8.93;;;;;;;;;;5029514;28;20409;-75
2021/07/05 10:17:46;;;;;;;9.70;8.90;;;;;;;;;;5029344;28;20777;-72
2021/07/05 10:20:17;;;;;;;10.73;9.73;;;;;;;;;;5029507;28;20893;-73
2021/07/05 10:22:45;;;;;;;11.73;10.83;;;;;;;;;;5029477;28;20435;-74
2021/07/05 10:25:11;;;;;;;12.73;11.70;;;;;;;;;;5029511;28;20416;-72
2021/07/05 10:27:37;;;;;;;11.50;10.57;;;;;;;;;;5028844;28;20924;-70
2021/07/05 10:30:05;;;;;;;10.37;9.60;;;;;;;;;;5029311;28;20475;-74
2021/07/05 10:32:31;;;;;;;10.20;9.30;;;;;;;;;;5022172;28;20980;-74
2021/07/05 10:34:57;;;;;;;9.30;8.60;;;;;;;;;;5029185;28;20412;-74
2021/07/05 10:37:29;;;;;;;10.87;9.97;;;;;;;;;;5028650;28;20408;-74
2021/07/05 10:39:56;;;;;;;10.70;9.70;;;;;;;;;;5029189;28;20432;-73
2021/07/05 10:42:31;;;;;;;10.80;9.80;;;;;;;;;;5029315;28;20502;-73
2021/07/05 10:44:57;;;;;;;9.73;8.90;;;;;;;;;;5029300;28;20502;-74
2021/07/05 10:47:42;;;;;;;10.40;9.60;;;;;;;;;;5028632;28;20425;-73
2021/07/05 10:50:09;;;;;;;9.10;8.40;;;;;;;;;;5029081;28;20444;-73
2021/07/05 10:52:49;;;;;;;9.17;8.57;;;;;;;;;;5029214;28;20416;-74
2021/07/05 10:55:34;;;;;;;8.80;8.10;;;;;;;;;;5022768;28;20908;-74
2021/07/05 10:58:00;;;;;;;8.27;7.57;;;;;;;;;;5027476;28;20735;-77
2021/07/05 11:00:39;;;;;;;7.07;6.50;;;;;;;;;;5028772;28;20487;-71
2021/07/05 11:03:05;;;;;;;8.53;7.73;;;;;;;;;;5029192;28;20449;-72
2021/07/05 11:05:33;;;;;;;7.47;6.87;;;;;;;;;;5028930;28;20419;-73
2021/07/05 11:08:17;;;;;;;6.83;6.33;;;;;;;;;;5028265;28;20513;-74
2021/07/05 11:10:44;;;;;;;7.30;6.80;;;;;;;;;;5028913;28;20494;-74
2021/07/05 11:13:10;;;;;;;7.80;7.20;;;;;;;;;;5028931;28;20983;-77
2021/07/05 11:15:48;;;;;;;6.37;5.87;;;;;;;;;;5027661;28;20507;-72
2021/07/05 11:18:37;;;;;;;6.10;5.70;;;;;;;;;;5028492;28;20420;-69
2021/07/05 11:21:07;;;;;;;7.33;6.83;;;;;;;;;;5027185;28;20555;-73
2021/07/05 11:23:52;;;;;;;6.83;6.33;;;;;;;;;;5021560;28;20424;-72
2021/07/05 11:26:18;;;;;;;6.27;5.87;;;;;;;;;;5024864;28;20423;-75
2021/07/05 11:28:44;;;;;;;6.13;5.63;;;;;;;;;;5028385;28;20491;-72
2021/07/05 11:31:21;;;;;;;5.67;5.17;;;;;;;;;;5028861;28;20470;-72
2021/07/05 11:33:47;;;;;;;5.50;5.10;;;;;;;;;;5028811;28;20778;-72
2021/07/05 11:36:23;;;;;;;5.97;5.57;;;;;;;;;;5028700;28;20420;-75
2021/07/05 11:38:59;;;;;;;6.27;5.80;;;;;;;;;;5028560;28;21011;-74
2021/07/05 11:41:26;;;;;;;5.57;5.17;;;;;;;;;;5027141;28;20429;-74
2021/07/05 11:43:55;;;;;;;6.70;6.10;;;;;;;;;;5022507;28;20928;-73
2021/07/05 11:46:27;;;;;;;6.67;6.17;;;;;;;;;;5032155;28;20423;-76
2021/07/05 11:48:57;;;;;;;6.83;6.23;;;;;;;;;;5032022;28;20471;-73
2021/07/05 11:51:25;;;;;;;7.40;6.87;;;;;;;;;;5032285;28;20443;-75
2021/07/05 11:54:02;;;;;;;6.43;5.93;;;;;;;;;;5032415;28;20921;-74
2021/07/05 11:56:33;;;;;;;7.30;6.57;;;;;;;;;;5032125;28;20495;-73
2021/07/05 11:59:00;;;;;;;7.07;6.47;;;;;;;;;;5031497;28;20442;-74
2021/07/05 12:01:27;;;;;;;7.23;6.20;;;;;;;;;;5032279;28;20435;-72
2021/07/05 12:03:54;;;;;;;8.17;7.57;;;;;;;;;;5032212;28;20424;-74
2021/07/05 12:06:20;;;;;;;8.53;7.93;;;;;;;;;;5031808;28;20428;-76
2021/07/05 12:08:56;;;;;;;9.57;8.67;;;;;;;;;;5031444;28;20551;-75
2021/07/05 12:11:51;;;;;;;8.20;7.57;;;;;;;;;;5031404;28;20424;-70
2021/07/05 12:14:18;;;;;;;8.07;7.37;;;;;;;;;;5019085;28;20424;-74
2021/07/05 12:16:46;;;;;;;8.37;7.67;;;;;;;;;;5031488;28;20485;-74
2021/07/05 12:19:13;;;;;;;7.40;6.80;;;;;;;;;;5031809;28;20442;-75
2021/07/05 12:21:44;;;;;;;8.47;7.87;;;;;;;;;;5031726;28;20421;-73
2021/07/05 12:24:11;;;;;;;7.90;7.30;;;;;;;;;;5031707;28;20469;-74
2021/07/05 12:26:42;;;;;;;7.57;7.07;;;;;;;;;;5031522;28;20412;-73
2021/07/05 12:29:15;;;;;;;9.00;8.20;;;;;;;;;;5031346;28;20537;-70
2021/07/05 12:31:57;;;;;;;8.63;7.93;;;;;;;;;;5031257;28;20475;-74
2021/07/05 12:34:42;;;;;;;8.37;7.77;;;;;;;;;;5031591;28;20415;-74
2021/07/05 12:37:11;;;;;;;8.93;8.10;;;;;;;;;;5031111;28;20821;-73
2021/07/05 12:40:03;;;;;;;9.20;8.40;;;;;;;;;;5031495;28;20455;-72
2021/07/05 12:42:32;;;;;;;7.73;7.23;;;;;;;;;;5023848;28;20459;-74
2021/07/05 12:45:00;;;;;;;6.73;6.20;;;;;;;;;;5030747;28;20416;-72
2021/07/05 12:47:26;;;;;;;3.67;3.37;;;;;;;;;;5030660;28;20420;-72
2021/07/05 12:49:53;;;;;;;3.33;2.73;;;;;;;;;;5031004;28;20848;-72
2021/07/05 12:52:19;;;;;;;3.40;3.10;;;;;;;;;;5029595;28;20428;-75
2021/07/05 12:54:46;;;;;;;2.37;1.97;;;;;;;;;;5031044;28;20453;-72
2021/07/05 12:57:14;;;;;;;2.10;1.80;;;;;;;;;;5028882;28;20832;-72
2021/07/05 12:59:41;;;;;;;2.73;2.20;;;;;;;;;;5030621;28;20888;-70
2021/07/05 13:02:24;;;;;;;2.30;1.70;;;;;;;;;;5030936;28;20421;-76
2021/07/05 13:05:03;;;;;;;2.20;1.87;;;;;;;;;;5030297;28;20784;-72
2021/07/05 13:07:29;;;;;;;2.27;1.60;;;;;;;;;;5023677;28;20431;-73
2021/07/05 13:10:03;;;;;;;2.73;1.80;;;;;;;;;;5030677;28;20801;-75
2021/07/05 13:12:29;;;;;;;2.43;2.23;;;;;;;;;;5030162;28;20447;-70
2021/07/05 13:15:10;;;;;;;2.97;1.90;;;;;;;;;;5030659;28;20422;-72
2021/07/05 13:17:38;;;;;;;2.47;2.17;;;;;;;;;;5029194;28;21056;-70
2021/07/05 13:20:09;;;;;;;2.43;2.23;;;;;;;;;;5030532;28;20436;-71
2021/07/05 13:22:35;;;;;;;3.27;2.97;;;;;;;;;;5029951;28;22022;-72
2021/07/05 13:25:01;;;;;;;3.57;3.00;;;;;;;;;;5030531;28;20829;-71
2021/07/05 13:27:31;;;;;;;4.50;4.10;;;;;;;;;;5029985;28;20929;-71
2021/07/05 13:29:58;;;;;;;7.37;5.80;;;;;;;;;;5030128;28;20533;-71
2021/07/05 13:32:26;;;;;;;7.03;6.27;;;;;;;;;;5030214;28;20423;-73
2021/07/05 13:35:02;;;;;;;4.13;3.83;;;;;;;;;;5030535;28;20440;-72
2021/07/05 13:37:39;;;;;;;4.20;3.80;;;;;;;;;;5030017;28;20416;-73
2021/07/05 13:40:06;;;;;;;3.67;3.37;;;;;;;;;;5030681;28;20797;-71
2021/07/05 13:42:43;;;;;;;4.30;3.17;;;;;;;;;;5030197;28;20417;-72
2021/07/05 13:45:17;;;;;;;3.90;3.50;;;;;;;;;;5030293;28;20418;-73
2021/07/05 13:47:47;;;;;;;3.53;3.23;;;;;;;;;;5029745;28;20429;-71
2021/07/05 13:50:13;;;;;;;3.60;3.30;;;;;;;;;;5029972;28;20459;-71
2021/07/05 13:52:44;;;;;;;3.70;2.73;;;;;;;;;;5030217;28;20470;-70
2021/07/05 13:55:21;;;;;;;3.57;2.70;;;;;;;;;;5029364;28;20426;-69
2021/07/05 13:57:48;;;;;;;2.70;2.33;;;;;;;;;;5025766;28;20968;-72
2021/07/05 14:00:14;;;;;;;2.40;2.20;;;;;;;;;;5029635;28;20452;-72
2021/07/05 14:02:41;;;;;;;3.13;2.83;;;;;;;;;;5029960;28;20466;-73
2021/07/05 14:05:20;;;;;;;5.53;2.87;;;;;;;;;;5029079;28;20451;-71
2021/07/05 14:07:46;;;;;;;3.10;2.80;;;;;;;;;;5028841;28;20432;-73
2021/07/05 14:10:13;;;;;;;3.60;3.30;;;;;;;;;;5028976;28;20521;-74
2021/07/05 14:12:39;;;;;;;4.30;3.97;;;;;;;;;;5029777;28;20425;-73
2021/07/05 14:15:07;;;;;;;4.10;3.80;;;;;;;;;;5029528;28;20474;-72
2021/07/05 14:17:33;;;;;;;7.03;6.40;;;;;;;;;;5029073;28;20905;-71
2021/07/05 14:19:59;;;;;;;5.13;4.73;;;;;;;;;;5029058;28;20478;-73
2021/07/05 14:22:25;;;;;;;7.50;4.83;;;;;;;;;;5029242;28;20507;-72
2021/07/05 14:24:51;;;;;;;5.00;4.60;;;;;;;;;;5029494;28;20425;-72
2021/07/05 14:27:17;;;;;;;4.40;4.10;;;;;;;;;;5029024;28;20416;-71
2021/07/05 14:29:43;;;;;;;4.57;4.17;;;;;;;;;;5028959;28;20468;-71
2021/07/05 14:32:09;;;;;;;5.40;4.90;;;;;;;;;;5028960;28;20443;-72
2021/07/05 14:34:35;;;;;;;6.60;5.80;;;;;;;;;;5029079;28;20889;-75